sensor_id;sensor_type;location;lat;lon;timestamp;temperature;humidity
27439;DHT22;14887;51.252;7.470;2023-02-13T00:00:41;5.80;99.90
27439;DHT22;14887;51.252;7.470;2023-02-13T00:03:07;5.80;99.90
27439;DHT22;14887;51.252;7.470;2023-02-13T00:05:32;5.80;99.90
27439;DHT22;14887;51.252;7.470;2023-02-13T00:07:58;5.80;99.90
27439;DHT22;14887;51.252;7.470;2023-02-13T00:10:23;5.70;99.90
27439;DHT22;14887;51.252;7.470;2023-02-13T00:12:49;5.70;99.90
27439;DHT22;14887;51.252;7.470;2023-02-13T00:15:15;5.70;99.90
27439;DHT22;14887;51.252;7.470;2023-02-13T00:17:40;5.70;99.90
27439;DHT22;14887;51.252;7.470;2023-02-13T00:20:06;5.70;99.90
27439;DHT22;14887;51.252;7.470;2023-02-13T00:22:36;5.70;99.90
27439;DHT22;14887;51.252;7.470;2023-02-13T00:25:06;5.60;99.90
27439;DHT22;14887;51.252;7.470;2023-02-13T00:27:32;5.60;99.90
27439;DHT22;14887;51.252;7.470;2023-02-13T00:29:58;5.50;99.90
27439;DHT22;14887;51.252;7.470;2023-02-13T00:32:23;5.60;99.90
27439;DHT22;14887;51.252;7.470;2023-02-13T00:34:49;5.50;99.90
27439;DHT22;14887;51.252;7.470;2023-02-13T00:37:14;5.50;99.90
27439;DHT22;14887;51.252;7.470;2023-02-13T00:39:40;5.50;99.90
27439;DHT22;14887;51.252;7.470;2023-02-13T00:42:06;5.40;99.90
27439;DHT22;14887;51.252;7.470;2023-02-13T00:44:32;5.40;99.90
27439;DHT22;14887;51.252;7.470;2023-02-13T00:46:57;5.30;99.90
27439;DHT22;14887;51.252;7.470;2023-02-13T00:49:23;5.30;99.90
27439;DHT22;14887;51.252;7.470;2023-02-13T00:51:49;5.40;99.90
27439;DHT22;14887;51.252;7.470;2023-02-13T00:54:14;5.30;99.90
27439;DHT22;14887;51.252;7.470;2023-02-13T00:56:40;5.20;99.90
27439;DHT22;14887;51.252;7.470;2023-02-13T00:59:06;5.20;99.90
27439;DHT22;14887;51.252;7.470;2023-02-13T01:01:32;5.10;99.90
27439;DHT22;14887;51.252;7.470;2023-02-13T01:03:57;5.20;99.90
27439;DHT22;14887;51.252;7.470;2023-02-13T01:06:23;5.20;99.90
27439;DHT22;14887;51.252;7.470;2023-02-13T01:08:48;5.20;99.90
27439;DHT22;14887;51.252;7.470;2023-02-13T01:11:14;5.10;99.90
27439;DHT22;14887;51.252;7.470;2023-02-13T01:13:40;5.20;99.90
27439;DHT22;14887;51.252;7.470;2023-02-13T01:16:06;5.10;99.90
27439;DHT22;14887;51.252;7.470;2023-02-13T01:18:31;5.10;99.90
27439;DHT22;14887;51.252;7.470;2023-02-13T01:21:06;5.10;99.90
27439;DHT22;14887;51.252;7.470;2023-02-13T01:23:36;5.00;99.90
27439;DHT22;14887;51.252;7.470;2023-02-13T01:26:06;5.00;99.90
27439;DHT22;14887;51.252;7.470;2023-02-13T01:28:32;5.10;99.90
27439;DHT22;14887;51.252;7.470;2023-02-13T01:30:58;5.00;99.90
27439;DHT22;14887;51.252;7.470;2023-02-13T01:33:25;5.00;99.90
27439;DHT22;14887;51.252;7.470;2023-02-13T01:35:51;5.00;99.90
27439;DHT22;14887;51.252;7.470;2023-02-13T01:38:17;5.00;99.90
27439;DHT22;14887;51.252;7.470;2023-02-13T01:40:47;5.00;99.90
27439;DHT22;14887;51.252;7.470;2023-02-13T01:43:13;4.90;99.90
27439;DHT22;14887;51.252;7.470;2023-02-13T01:45:40;4.90;99.90
27439;DHT22;14887;51.252;7.470;2023-02-13T01:48:21;4.90;99.90
27439;DHT22;14887;51.252;7.470;2023-02-13T01:50:55;4.80;99.90
27439;DHT22;14887;51.252;7.470;2023-02-13T01:55:57;4.70;99.90
27439;DHT22;14887;51.252;7.470;2023-02-13T01:58:26;4.70;99.90
27439;DHT22;14887;51.252;7.470;2023-02-13T02:00:52;4.70;99.90
27439;DHT22;14887;51.252;7.470;2023-02-13T02:03:31;4.70;99.90
27439;DHT22;14887;51.252;7.470;2023-02-13T02:06:01;4.60;99.90
27439;DHT22;14887;51.252;7.470;2023-02-13T02:08:27;4.70;99.90
27439;DHT22;14887;51.252;7.470;2023-02-13T02:10:56;4.70;99.90
27439;DHT22;14887;51.252;7.470;2023-02-13T02:13:25;4.70;99.90
27439;DHT22;14887;51.252;7.470;2023-02-13T02:15:51;4.60;99.90
27439;DHT22;14887;51.252;7.470;2023-02-13T02:18:20;4.70;99.90
27439;DHT22;14887;51.252;7.470;2023-02-13T02:21:22;4.70;99.90
27439;DHT22;14887;51.252;7.470;2023-02-13T02:38:20;4.70;99.90
27439;DHT22;14887;51.252;7.470;2023-02-13T02:41:20;4.70;99.90
27439;DHT22;14887;51.252;7.470;2023-02-13T02:44:31;4.70;99.90
27439;DHT22;14887;51.252;7.470;2023-02-13T02:49:54;4.80;99.90
27439;DHT22;14887;51.252;7.470;2023-02-13T02:52:39;4.80;99.90
27439;DHT22;14887;51.252;7.470;2023-02-13T03:01:05;4.80;99.90
27439;DHT22;14887;51.252;7.470;2023-02-13T03:03:52;4.80;99.90
27439;DHT22;14887;51.252;7.470;2023-02-13T03:06:58;4.80;99.90
27439;DHT22;14887;51.252;7.470;2023-02-13T03:09:29;4.90;99.90
27439;DHT22;14887;51.252;7.470;2023-02-13T03:12:20;4.80;99.90
27439;DHT22;14887;51.252;7.470;2023-02-13T03:15:06;4.90;99.90
27439;DHT22;14887;51.252;7.470;2023-02-13T03:17:32;4.90;99.90
27439;DHT22;14887;51.252;7.470;2023-02-13T03:24:04;4.90;99.90
27439;DHT22;14887;51.252;7.470;2023-02-13T03:26:41;4.90;99.90
27439;DHT22;14887;51.252;7.470;2023-02-13T03:29:27;4.90;99.90
27439;DHT22;14887;51.252;7.470;2023-02-13T03:32:31;4.90;99.90
27439;DHT22;14887;51.252;7.470;2023-02-13T03:35:30;4.90;99.90
27439;DHT22;14887;51.252;7.470;2023-02-13T03:41:42;4.90;99.90
27439;DHT22;14887;51.252;7.470;2023-02-13T03:46:59;4.80;99.90
27439;DHT22;14887;51.252;7.470;2023-02-13T03:49:46;4.80;99.90
27439;DHT22;14887;51.252;7.470;2023-02-13T03:52:38;4.80;99.90
27439;DHT22;14887;51.252;7.470;2023-02-13T03:55:13;4.80;99.90
27439;DHT22;14887;51.252;7.470;2023-02-13T03:58:06;4.80;99.90
27439;DHT22;14887;51.252;7.470;2023-02-13T04:00:54;4.80;99.90
27439;DHT22;14887;51.252;7.470;2023-02-13T04:03:27;4.90;99.90
27439;DHT22;14887;51.252;7.470;2023-02-13T04:06:03;4.90;99.90
27439;DHT22;14887;51.252;7.470;2023-02-13T04:08:30;4.80;99.90
27439;DHT22;14887;51.252;7.470;2023-02-13T04:13:56;4.80;99.90
27439;DHT22;14887;51.252;7.470;2023-02-13T04:16:36;4.80;99.90
27439;DHT22;14887;51.252;7.470;2023-02-13T04:19:04;4.80;99.90
27439;DHT22;14887;51.252;7.470;2023-02-13T04:21:34;4.70;99.90
27439;DHT22;14887;51.252;7.470;2023-02-13T04:24:01;4.70;99.90
27439;DHT22;14887;51.252;7.470;2023-02-13T04:26:35;4.70;99.90
27439;DHT22;14887;51.252;7.470;2023-02-13T04:29:02;4.70;99.90
27439;DHT22;14887;51.252;7.470;2023-02-13T04:31:28;4.70;99.90
27439;DHT22;14887;51.252;7.470;2023-02-13T04:33:53;4.70;99.90
27439;DHT22;14887;51.252;7.470;2023-02-13T04:36:19;4.70;99.90
27439;DHT22;14887;51.252;7.470;2023-02-13T04:38:44;4.70;99.90
27439;DHT22;14887;51.252;7.470;2023-02-13T04:41:10;4.70;99.90
27439;DHT22;14887;51.252;7.470;2023-02-13T04:43:36;4.70;99.90
27439;DHT22;14887;51.252;7.470;2023-02-13T04:46:02;4.70;99.90
27439;DHT22;14887;51.252;7.470;2023-02-13T04:48:27;4.70;99.90
27439;DHT22;14887;51.252;7.470;2023-02-13T04:50:53;4.70;99.90
27439;DHT22;14887;51.252;7.470;2023-02-13T04:53:18;4.70;99.90
27439;DHT22;14887;51.252;7.470;2023-02-13T04:55:44;4.70;99.90
27439;DHT22;14887;51.252;7.470;2023-02-13T04:58:10;4.70;99.90
27439;DHT22;14887;51.252;7.470;2023-02-13T05:00:35;4.70;99.90
27439;DHT22;14887;51.252;7.470;2023-02-13T05:03:07;4.70;99.90
27439;DHT22;14887;51.252;7.470;2023-02-13T05:05:33;4.70;99.90
27439;DHT22;14887;51.252;7.470;2023-02-13T05:07:59;4.70;99.90
27439;DHT22;14887;51.252;7.470;2023-02-13T05:10:26;4.70;99.90
27439;DHT22;14887;51.252;7.470;2023-02-13T05:12:52;4.70;99.90
27439;DHT22;14887;51.252;7.470;2023-02-13T05:15:17;4.70;99.90
27439;DHT22;14887;51.252;7.470;2023-02-13T05:17:44;4.70;99.90
27439;DHT22;14887;51.252;7.470;2023-02-13T05:20:11;4.80;99.90
27439;DHT22;14887;51.252;7.470;2023-02-13T05:22:36;4.80;99.90
27439;DHT22;14887;51.252;7.470;2023-02-13T05:25:20;4.80;99.90
27439;DHT22;14887;51.252;7.470;2023-02-13T05:27:46;4.80;99.90
27439;DHT22;14887;51.252;7.470;2023-02-13T05:30:12;4.70;99.90
27439;DHT22;14887;51.252;7.470;2023-02-13T05:32:38;4.70;99.90
27439;DHT22;14887;51.252;7.470;2023-02-13T05:35:04;4.70;99.90
27439;DHT22;14887;51.252;7.470;2023-02-13T05:37:30;4.60;99.90
27439;DHT22;14887;51.252;7.470;2023-02-13T05:39:56;4.60;99.90
27439;DHT22;14887;51.252;7.470;2023-02-13T05:42:22;4.60;99.90
27439;DHT22;14887;51.252;7.470;2023-02-13T05:44:47;4.50;99.90
27439;DHT22;14887;51.252;7.470;2023-02-13T05:47:13;4.50;99.90
27439;DHT22;14887;51.252;7.470;2023-02-13T05:49:38;4.50;99.90
27439;DHT22;14887;51.252;7.470;2023-02-13T05:52:04;4.50;99.90
27439;DHT22;14887;51.252;7.470;2023-02-13T05:54:29;4.40;99.90
27439;DHT22;14887;51.252;7.470;2023-02-13T05:56:55;4.40;99.90
27439;DHT22;14887;51.252;7.470;2023-02-13T05:59:21;4.30;99.90
27439;DHT22;14887;51.252;7.470;2023-02-13T06:01:46;4.30;99.90
27439;DHT22;14887;51.252;7.470;2023-02-13T06:04:12;4.20;99.90
27439;DHT22;14887;51.252;7.470;2023-02-13T06:06:37;4.10;99.90
27439;DHT22;14887;51.252;7.470;2023-02-13T06:09:03;4.10;99.90
27439;DHT22;14887;51.252;7.470;2023-02-13T06:11:29;4.10;99.90
27439;DHT22;14887;51.252;7.470;2023-02-13T06:13:54;4.10;99.90
27439;DHT22;14887;51.252;7.470;2023-02-13T06:16:20;4.00;99.90
27439;DHT22;14887;51.252;7.470;2023-02-13T06:18:46;4.00;99.90
27439;DHT22;14887;51.252;7.470;2023-02-13T06:21:12;3.90;99.90
27439;DHT22;14887;51.252;7.470;2023-02-13T06:23:38;3.90;99.90
27439;DHT22;14887;51.252;7.470;2023-02-13T06:26:05;3.90;99.90
27439;DHT22;14887;51.252;7.470;2023-02-13T06:28:31;3.90;99.90
27439;DHT22;14887;51.252;7.470;2023-02-13T06:30:56;3.90;99.90
27439;DHT22;14887;51.252;7.470;2023-02-13T06:33:22;3.80;99.90
27439;DHT22;14887;51.252;7.470;2023-02-13T06:35:48;3.80;99.90
27439;DHT22;14887;51.252;7.470;2023-02-13T06:38:13;3.80;99.90
27439;DHT22;14887;51.252;7.470;2023-02-13T06:40:39;3.70;99.90
27439;DHT22;14887;51.252;7.470;2023-02-13T06:43:06;3.80;99.90
27439;DHT22;14887;51.252;7.470;2023-02-13T06:45:31;3.80;99.90
27439;DHT22;14887;51.252;7.470;2023-02-13T06:47:57;3.70;99.90
27439;DHT22;14887;51.252;7.470;2023-02-13T06:50:23;3.70;99.90
27439;DHT22;14887;51.252;7.470;2023-02-13T06:52:49;3.70;99.90
27439;DHT22;14887;51.252;7.470;2023-02-13T06:55:16;3.70;99.90
27439;DHT22;14887;51.252;7.470;2023-02-13T06:57:43;3.60;99.90
27439;DHT22;14887;51.252;7.470;2023-02-13T07:00:10;3.60;99.90
27439;DHT22;14887;51.252;7.470;2023-02-13T07:02:41;3.60;99.90
27439;DHT22;14887;51.252;7.470;2023-02-13T07:05:07;3.70;99.90
27439;DHT22;14887;51.252;7.470;2023-02-13T07:07:34;3.70;99.90
27439;DHT22;14887;51.252;7.470;2023-02-13T07:10:00;3.60;99.90
27439;DHT22;14887;51.252;7.470;2023-02-13T07:12:26;3.60;99.90
27439;DHT22;14887;51.252;7.470;2023-02-13T07:14:52;3.60;99.90
27439;DHT22;14887;51.252;7.470;2023-02-13T07:17:17;3.60;99.90
27439;DHT22;14887;51.252;7.470;2023-02-13T07:19:43;3.60;99.90
27439;DHT22;14887;51.252;7.470;2023-02-13T07:22:08;3.60;99.90
27439;DHT22;14887;51.252;7.470;2023-02-13T07:24:34;3.60;99.90
27439;DHT22;14887;51.252;7.470;2023-02-13T07:27:01;3.60;99.90
27439;DHT22;14887;51.252;7.470;2023-02-13T07:29:27;3.60;99.90
27439;DHT22;14887;51.252;7.470;2023-02-13T07:31:52;3.60;99.90
27439;DHT22;14887;51.252;7.470;2023-02-13T07:34:18;3.60;99.90
27439;DHT22;14887;51.252;7.470;2023-02-13T07:36:43;3.60;99.90
27439;DHT22;14887;51.252;7.470;2023-02-13T07:39:09;3.60;99.90
27439;DHT22;14887;51.252;7.470;2023-02-13T07:41:34;3.60;99.90
27439;DHT22;14887;51.252;7.470;2023-02-13T07:44:00;3.70;99.90
27439;DHT22;14887;51.252;7.470;2023-02-13T07:46:25;3.60;99.90
27439;DHT22;14887;51.252;7.470;2023-02-13T07:48:51;3.70;99.90
27439;DHT22;14887;51.252;7.470;2023-02-13T07:51:17;3.80;99.90
27439;DHT22;14887;51.252;7.470;2023-02-13T07:53:43;3.90;99.90
27439;DHT22;14887;51.252;7.470;2023-02-13T07:56:09;3.90;99.90
27439;DHT22;14887;51.252;7.470;2023-02-13T07:58:36;4.00;99.90
27439;DHT22;14887;51.252;7.470;2023-02-13T08:01:06;4.20;99.90
27439;DHT22;14887;51.252;7.470;2023-02-13T08:03:32;4.60;99.90
27439;DHT22;14887;51.252;7.470;2023-02-13T08:05:58;5.00;99.90
27439;DHT22;14887;51.252;7.470;2023-02-13T08:10:46;5.30;99.90
27439;DHT22;14887;51.252;7.470;2023-02-13T08:13:34;6.00;99.90
27439;DHT22;14887;51.252;7.470;2023-02-13T08:16:02;6.20;99.90
27439;DHT22;14887;51.252;7.470;2023-02-13T08:18:28;6.40;99.90
27439;DHT22;14887;51.252;7.470;2023-02-13T08:20:53;6.70;99.90
27439;DHT22;14887;51.252;7.470;2023-02-13T08:23:19;6.90;95.60
27439;DHT22;14887;51.252;7.470;2023-02-13T08:25:47;7.10;67.50
27439;DHT22;14887;51.252;7.470;2023-02-13T08:28:19;7.50;2.20
27439;DHT22;14887;51.252;7.470;2023-02-13T08:30:44;7.60;1.00
27439;DHT22;14887;51.252;7.470;2023-02-13T08:33:10;7.60;1.00
27439;DHT22;14887;51.252;7.470;2023-02-13T08:35:39;7.90;1.00
27439;DHT22;14887;51.252;7.470;2023-02-13T08:38:05;7.90;1.00
27439;DHT22;14887;51.252;7.470;2023-02-13T08:40:31;8.00;1.00
27439;DHT22;14887;51.252;7.470;2023-02-13T08:43:04;8.10;1.00
27439;DHT22;14887;51.252;7.470;2023-02-13T08:45:31;8.40;1.00
27439;DHT22;14887;51.252;7.470;2023-02-13T08:48:00;8.70;1.00
27439;DHT22;14887;51.252;7.470;2023-02-13T08:50:28;8.70;1.00
27439;DHT22;14887;51.252;7.470;2023-02-13T08:52:53;9.00;1.00
27439;DHT22;14887;51.252;7.470;2023-02-13T08:55:19;9.10;1.00
27439;DHT22;14887;51.252;7.470;2023-02-13T08:57:45;9.30;1.00
27439;DHT22;14887;51.252;7.470;2023-02-13T09:00:11;9.60;99.90
27439;DHT22;14887;51.252;7.470;2023-02-13T09:02:38;9.70;99.90
27439;DHT22;14887;51.252;7.470;2023-02-13T09:05:04;9.80;99.90
27439;DHT22;14887;51.252;7.470;2023-02-13T09:07:29;10.10;99.90
27439;DHT22;14887;51.252;7.470;2023-02-13T09:09:55;10.30;1.00
27439;DHT22;14887;51.252;7.470;2023-02-13T09:12:21;10.40;1.00
27439;DHT22;14887;51.252;7.470;2023-02-13T09:14:46;10.50;1.00
27439;DHT22;14887;51.252;7.470;2023-02-13T09:17:12;10.90;1.00
27439;DHT22;14887;51.252;7.470;2023-02-13T09:19:38;11.00;99.90
27439;DHT22;14887;51.252;7.470;2023-02-13T09:22:04;11.20;99.90
27439;DHT22;14887;51.252;7.470;2023-02-13T09:24:30;11.30;99.90
27439;DHT22;14887;51.252;7.470;2023-02-13T09:26:55;11.30;1.00
27439;DHT22;14887;51.252;7.470;2023-02-13T09:29:21;11.40;99.90
27439;DHT22;14887;51.252;7.470;2023-02-13T09:31:46;11.50;1.00
27439;DHT22;14887;51.252;7.470;2023-02-13T09:34:12;11.40;99.90
27439;DHT22;14887;51.252;7.470;2023-02-13T09:36:38;11.70;99.90
27439;DHT22;14887;51.252;7.470;2023-02-13T09:39:03;11.80;99.90
27439;DHT22;14887;51.252;7.470;2023-02-13T09:41:38;11.80;1.00
27439;DHT22;14887;51.252;7.470;2023-02-13T09:44:19;11.60;1.00
27439;DHT22;14887;51.252;7.470;2023-02-13T09:47:13;11.50;1.00
27439;DHT22;14887;51.252;7.470;2023-02-13T09:49:43;11.70;1.00
27439;DHT22;14887;51.252;7.470;2023-02-13T09:52:10;11.80;85.30
27439;DHT22;14887;51.252;7.470;2023-02-13T09:54:35;11.80;1.00
27439;DHT22;14887;51.252;7.470;2023-02-13T09:57:38;11.90;99.90
27439;DHT22;14887;51.252;7.470;2023-02-13T10:14:01;12.50;1.00
27439;DHT22;14887;51.252;7.470;2023-02-13T10:16:31;12.70;1.00
27439;DHT22;14887;51.252;7.470;2023-02-13T10:21:57;12.70;1.00
27439;DHT22;14887;51.252;7.470;2023-02-13T10:26:57;12.30;1.00
27439;DHT22;14887;51.252;7.470;2023-02-13T10:29:55;12.10;1.00
27439;DHT22;14887;51.252;7.470;2023-02-13T10:33:03;12.10;1.00
27439;DHT22;14887;51.252;7.470;2023-02-13T10:36:01;12.20;1.00
27439;DHT22;14887;51.252;7.470;2023-02-13T10:38:31;12.40;1.00
27439;DHT22;14887;51.252;7.470;2023-02-13T10:46:40;12.80;1.00
27439;DHT22;14887;51.252;7.470;2023-02-13T10:57:26;13.20;99.90
27439;DHT22;14887;51.252;7.470;2023-02-13T11:00:03;13.10;99.90
27439;DHT22;14887;51.252;7.470;2023-02-13T11:02:31;13.10;99.90
27439;DHT22;14887;51.252;7.470;2023-02-13T11:05:23;13.10;99.90
27439;DHT22;14887;51.252;7.470;2023-02-13T11:07:49;13.20;99.90
27439;DHT22;14887;51.252;7.470;2023-02-13T11:10:24;13.40;99.90
27439;DHT22;14887;51.252;7.470;2023-02-13T11:12:50;13.40;99.90
27439;DHT22;14887;51.252;7.470;2023-02-13T11:15:42;13.60;99.90
27439;DHT22;14887;51.252;7.470;2023-02-13T11:18:21;13.60;99.90
27439;DHT22;14887;51.252;7.470;2023-02-13T11:21:02;13.70;99.90
27439;DHT22;14887;51.252;7.470;2023-02-13T11:28:33;13.80;99.90
27439;DHT22;14887;51.252;7.470;2023-02-13T11:33:51;13.80;99.90
27439;DHT22;14887;51.252;7.470;2023-02-13T11:36:24;13.90;99.90
27439;DHT22;14887;51.252;7.470;2023-02-13T11:39:05;13.80;99.90
27439;DHT22;14887;51.252;7.470;2023-02-13T11:41:41;14.10;99.90
27439;DHT22;14887;51.252;7.470;2023-02-13T11:44:26;14.30;99.90
27439;DHT22;14887;51.252;7.470;2023-02-13T11:46:54;14.30;99.90
27439;DHT22;14887;51.252;7.470;2023-02-13T11:49:22;14.40;99.90
27439;DHT22;14887;51.252;7.470;2023-02-13T11:51:50;14.30;99.90
27439;DHT22;14887;51.252;7.470;2023-02-13T11:57:02;14.50;99.90
27439;DHT22;14887;51.252;7.470;2023-02-13T11:59:38;14.70;99.90
27439;DHT22;14887;51.252;7.470;2023-02-13T12:02:20;14.60;99.90
27439;DHT22;14887;51.252;7.470;2023-02-13T12:04:48;14.70;99.90
27439;DHT22;14887;51.252;7.470;2023-02-13T12:07:30;14.80;99.90
27439;DHT22;14887;51.252;7.470;2023-02-13T12:10:07;14.90;99.90
27439;DHT22;14887;51.252;7.470;2023-02-13T12:12:34;15.00;99.90
27439;DHT22;14887;51.252;7.470;2023-02-13T12:15:38;15.10;99.90
27439;DHT22;14887;51.252;7.470;2023-02-13T12:20:36;14.90;78.90
27439;DHT22;14887;51.252;7.470;2023-02-13T12:23:16;15.20;99.90
27439;DHT22;14887;51.252;7.470;2023-02-13T12:25:45;15.30;98.60
27439;DHT22;14887;51.252;7.470;2023-02-13T12:28:14;15.60;24.70
27439;DHT22;14887;51.252;7.470;2023-02-13T12:31:03;15.60;22.20
27439;DHT22;14887;51.252;7.470;2023-02-13T12:39:37;15.90;1.00
27439;DHT22;14887;51.252;7.470;2023-02-13T12:44:53;15.90;1.00
27439;DHT22;14887;51.252;7.470;2023-02-13T12:56:00;16.50;1.00
27439;DHT22;14887;51.252;7.470;2023-02-13T13:04:40;16.90;1.00
27439;DHT22;14887;51.252;7.470;2023-02-13T13:09:34;17.10;1.00
27439;DHT22;14887;51.252;7.470;2023-02-13T13:12:15;17.00;1.00
27439;DHT22;14887;51.252;7.470;2023-02-13T13:14:52;16.80;1.00
27439;DHT22;14887;51.252;7.470;2023-02-13T13:17:46;16.90;1.00
27439;DHT22;14887;51.252;7.470;2023-02-13T13:20:50;17.20;1.00
27439;DHT22;14887;51.252;7.470;2023-02-13T13:23:36;17.30;1.00
27439;DHT22;14887;51.252;7.470;2023-02-13T13:26:34;17.30;1.00
27439;DHT22;14887;51.252;7.470;2023-02-13T13:29:09;17.50;1.00
27439;DHT22;14887;51.252;7.470;2023-02-13T13:31:37;18.10;1.00
27439;DHT22;14887;51.252;7.470;2023-02-13T13:34:06;18.30;1.00
27439;DHT22;14887;51.252;7.470;2023-02-13T13:36:45;18.90;1.00
27439;DHT22;14887;51.252;7.470;2023-02-13T13:40:25;18.90;1.00
27439;DHT22;14887;51.252;7.470;2023-02-13T13:43:07;19.20;1.00
27439;DHT22;14887;51.252;7.470;2023-02-13T13:51:12;19.70;1.00
27439;DHT22;14887;51.252;7.470;2023-02-13T14:05:17;21.60;1.00
27439;DHT22;14887;51.252;7.470;2023-02-13T14:07:46;22.50;1.00
27439;DHT22;14887;51.252;7.470;2023-02-13T14:13:49;24.00;1.00
27439;DHT22;14887;51.252;7.470;2023-02-13T14:16:46;24.60;1.00
27439;DHT22;14887;51.252;7.470;2023-02-13T14:19:31;24.60;1.00
27439;DHT22;14887;51.252;7.470;2023-02-13T14:27:34;24.60;1.00
27439;DHT22;14887;51.252;7.470;2023-02-13T14:30:26;23.80;1.00
27439;DHT22;14887;51.252;7.470;2023-02-13T14:32:52;23.40;1.00
27439;DHT22;14887;51.252;7.470;2023-02-13T14:35:34;24.00;1.00
27439;DHT22;14887;51.252;7.470;2023-02-13T14:38:23;24.60;1.00
27439;DHT22;14887;51.252;7.470;2023-02-13T14:40:55;24.60;1.00
27439;DHT22;14887;51.252;7.470;2023-02-13T14:43:49;25.20;1.00
27439;DHT22;14887;51.252;7.470;2023-02-13T14:48:56;26.00;1.00
27439;DHT22;14887;51.252;7.470;2023-02-13T14:51:31;25.70;1.00
27439;DHT22;14887;51.252;7.470;2023-02-13T14:54:06;26.20;1.00
27439;DHT22;14887;51.252;7.470;2023-02-13T14:56:37;26.10;99.90
27439;DHT22;14887;51.252;7.470;2023-02-13T14:59:16;25.50;99.90
27439;DHT22;14887;51.252;7.470;2023-02-13T15:01:56;25.50;99.90
27439;DHT22;14887;51.252;7.470;2023-02-13T15:04:45;25.60;99.90
27439;DHT22;14887;51.252;7.470;2023-02-13T15:07:18;25.60;99.90
27439;DHT22;14887;51.252;7.470;2023-02-13T15:10:03;25.70;99.90
27439;DHT22;14887;51.252;7.470;2023-02-13T15:12:36;25.30;99.90
27439;DHT22;14887;51.252;7.470;2023-02-13T15:15:22;24.50;99.90
27439;DHT22;14887;51.252;7.470;2023-02-13T15:17:48;24.40;99.90
27439;DHT22;14887;51.252;7.470;2023-02-13T15:20:25;24.20;99.90
27439;DHT22;14887;51.252;7.470;2023-02-13T15:22:52;24.60;99.90
27439;DHT22;14887;51.252;7.470;2023-02-13T15:25:32;24.80;99.90
27439;DHT22;14887;51.252;7.470;2023-02-13T15:27:59;24.70;99.90
27439;DHT22;14887;51.252;7.470;2023-02-13T15:30:27;24.60;99.90
27439;DHT22;14887;51.252;7.470;2023-02-13T15:32:59;23.60;99.90
27439;DHT22;14887;51.252;7.470;2023-02-13T15:35:33;22.80;99.90
27439;DHT22;14887;51.252;7.470;2023-02-13T15:38:27;21.90;99.90
27439;DHT22;14887;51.252;7.470;2023-02-13T15:40:57;20.40;99.90
27439;DHT22;14887;51.252;7.470;2023-02-13T15:43:42;19.10;99.90
27439;DHT22;14887;51.252;7.470;2023-02-13T15:46:27;17.30;99.90
27439;DHT22;14887;51.252;7.470;2023-02-13T15:48:55;15.90;99.90
27439;DHT22;14887;51.252;7.470;2023-02-13T15:51:25;15.00;1.00
27439;DHT22;14887;51.252;7.470;2023-02-13T15:53:53;14.30;1.00
27439;DHT22;14887;51.252;7.470;2023-02-13T15:56:19;13.70;1.00
27439;DHT22;14887;51.252;7.470;2023-02-13T15:58:45;13.30;1.00
27439;DHT22;14887;51.252;7.470;2023-02-13T16:01:12;12.90;1.00
27439;DHT22;14887;51.252;7.470;2023-02-13T16:03:39;12.60;1.00
27439;DHT22;14887;51.252;7.470;2023-02-13T16:06:08;12.30;99.90
27439;DHT22;14887;51.252;7.470;2023-02-13T16:08:38;12.20;99.90
27439;DHT22;14887;51.252;7.470;2023-02-13T16:11:18;12.00;56.50
27439;DHT22;14887;51.252;7.470;2023-02-13T16:14:16;11.80;99.90
27439;DHT22;14887;51.252;7.470;2023-02-13T16:19:27;11.50;99.90
27439;DHT22;14887;51.252;7.470;2023-02-13T16:21:54;11.30;99.90
27439;DHT22;14887;51.252;7.470;2023-02-13T16:24:20;11.20;99.90
27439;DHT22;14887;51.252;7.470;2023-02-13T16:26:47;11.20;99.90
27439;DHT22;14887;51.252;7.470;2023-02-13T16:29:18;11.00;1.00
27439;DHT22;14887;51.252;7.470;2023-02-13T16:31:44;10.90;99.90
27439;DHT22;14887;51.252;7.470;2023-02-13T16:34:28;10.80;1.00
27439;DHT22;14887;51.252;7.470;2023-02-13T16:36:55;10.70;1.00
27439;DHT22;14887;51.252;7.470;2023-02-13T16:39:27;10.60;1.00
27439;DHT22;14887;51.252;7.470;2023-02-13T16:41:57;10.50;1.00
27439;DHT22;14887;51.252;7.470;2023-02-13T16:44:30;10.40;1.00
27439;DHT22;14887;51.252;7.470;2023-02-13T16:46:58;10.30;1.00
27439;DHT22;14887;51.252;7.470;2023-02-13T16:49:34;10.10;99.90
27439;DHT22;14887;51.252;7.470;2023-02-13T16:52:20;10.00;99.90
27439;DHT22;14887;51.252;7.470;2023-02-13T16:54:54;9.90;99.90
27439;DHT22;14887;51.252;7.470;2023-02-13T16:57:32;9.90;99.90
27439;DHT22;14887;51.252;7.470;2023-02-13T17:00:03;9.70;99.90
27439;DHT22;14887;51.252;7.470;2023-02-13T17:02:39;9.60;83.60
27439;DHT22;14887;51.252;7.470;2023-02-13T17:07:41;9.50;1.00
27439;DHT22;14887;51.252;7.470;2023-02-13T17:10:31;9.40;1.00
27439;DHT22;14887;51.252;7.470;2023-02-13T17:15:42;9.40;1.00
27439;DHT22;14887;51.252;7.470;2023-02-13T17:18:11;9.30;1.00
27439;DHT22;14887;51.252;7.470;2023-02-13T17:20:41;9.40;99.90
27439;DHT22;14887;51.252;7.470;2023-02-13T17:23:17;9.40;1.00
27439;DHT22;14887;51.252;7.470;2023-02-13T17:25:45;9.30;99.90
27439;DHT22;14887;51.252;7.470;2023-02-13T17:28:15;9.30;95.20
27439;DHT22;14887;51.252;7.470;2023-02-13T17:30:44;9.30;99.90
27439;DHT22;14887;51.252;7.470;2023-02-13T17:33:17;9.30;31.50
27439;DHT22;14887;51.252;7.470;2023-02-13T17:35:44;9.20;99.90
27439;DHT22;14887;51.252;7.470;2023-02-13T17:38:09;9.30;1.00
27439;DHT22;14887;51.252;7.470;2023-02-13T17:40:35;9.10;1.00
27439;DHT22;14887;51.252;7.470;2023-02-13T17:43:01;9.10;1.00
27439;DHT22;14887;51.252;7.470;2023-02-13T17:45:29;9.10;1.00
27439;DHT22;14887;51.252;7.470;2023-02-13T17:47:56;9.10;1.00
27439;DHT22;14887;51.252;7.470;2023-02-13T17:50:26;9.10;1.00
27439;DHT22;14887;51.252;7.470;2023-02-13T17:52:52;9.10;1.00
27439;DHT22;14887;51.252;7.470;2023-02-13T17:55:21;9.10;1.00
27439;DHT22;14887;51.252;7.470;2023-02-13T17:57:49;9.10;1.00
27439;DHT22;14887;51.252;7.470;2023-02-13T18:00:19;9.10;1.00
27439;DHT22;14887;51.252;7.470;2023-02-13T18:02:46;9.10;1.00
27439;DHT22;14887;51.252;7.470;2023-02-13T18:05:16;9.10;1.00
27439;DHT22;14887;51.252;7.470;2023-02-13T18:07:43;9.00;1.00
27439;DHT22;14887;51.252;7.470;2023-02-13T18:10:21;9.00;1.00
27439;DHT22;14887;51.252;7.470;2023-02-13T18:12:48;8.90;1.00
27439;DHT22;14887;51.252;7.470;2023-02-13T18:15:15;8.90;1.00
27439;DHT22;14887;51.252;7.470;2023-02-13T18:17:41;8.80;99.90
27439;DHT22;14887;51.252;7.470;2023-02-13T18:20:12;8.70;1.00
27439;DHT22;14887;51.252;7.470;2023-02-13T18:22:38;8.70;46.70
27439;DHT22;14887;51.252;7.470;2023-02-13T18:25:05;8.60;99.90
27439;DHT22;14887;51.252;7.470;2023-02-13T18:27:42;8.50;99.90
27439;DHT22;14887;51.252;7.470;2023-02-13T18:30:14;8.60;99.90
27439;DHT22;14887;51.252;7.470;2023-02-13T18:32:40;8.50;1.00
27439;DHT22;14887;51.252;7.470;2023-02-13T18:35:06;8.50;1.00
27439;DHT22;14887;51.252;7.470;2023-02-13T18:37:33;8.50;1.00
27439;DHT22;14887;51.252;7.470;2023-02-13T18:39:58;8.50;99.90
27439;DHT22;14887;51.252;7.470;2023-02-13T18:42:24;8.40;99.90